createdAt,value
2017-09-14T00:01:17.359Z,99693.02
2017-09-14T00:03:44.978Z,99696.91
2017-09-14T00:06:12.868Z,99701.44
2017-09-14T00:08:40.565Z,99697.30
2017-09-14T00:11:08.298Z,99694.52
2017-09-14T00:13:36.051Z,99691.65
2017-09-14T00:16:04.087Z,99690.21
2017-09-14T00:18:31.878Z,99687.30
2017-09-14T00:20:59.507Z,99682.78
2017-09-14T00:23:27.126Z,99685.86
2017-09-14T00:25:54.732Z,99678.94
2017-09-14T00:28:22.348Z,99669.83
2017-09-14T00:30:50.122Z,99673.30
2017-09-14T00:33:17.914Z,99669.14
2017-09-14T00:35:45.594Z,99656.20
2017-09-14T00:38:17.389Z,99650.48
2017-09-14T00:40:44.974Z,99646.83
2017-09-14T00:43:12.619Z,99646.83
2017-09-14T00:45:40.226Z,99649.45
2017-09-14T00:48:07.844Z,99647.39
2017-09-14T00:50:35.431Z,99650.06
2017-09-14T00:53:03.064Z,99650.03
2017-09-14T00:55:30.643Z,99637.22
2017-09-14T00:57:58.226Z,99632.86
2017-09-14T01:00:26.007Z,99636.03
2017-09-14T01:02:53.798Z,99625.56
2017-09-14T01:05:21.778Z,99626.44
2017-09-14T01:07:49.632Z,99619.86
2017-09-14T01:10:17.309Z,99616.14
2017-09-14T01:12:44.925Z,99616.98
2017-09-14T01:15:12.824Z,99621.19
2017-09-14T01:17:40.592Z,99616.25
2017-09-14T01:20:08.761Z,99609.20
2017-09-14T01:22:36.582Z,99622.49
2017-09-14T01:25:04.454Z,99627.00
2017-09-14T01:27:32.047Z,99636.27
2017-09-14T01:29:59.716Z,99636.99
2017-09-14T01:32:27.828Z,99638.56
2017-09-14T01:34:55.707Z,99642.05
2017-09-14T01:37:23.847Z,99646.48
2017-09-14T01:39:51.645Z,99647.05
2017-09-14T01:42:19.339Z,99646.62
2017-09-14T01:44:47.220Z,99647.28
2017-09-14T01:47:14.956Z,99655.89
2017-09-14T01:49:43.098Z,99660.00
2017-09-14T01:52:11.056Z,99670.23
2017-09-14T01:54:38.896Z,99671.74
2017-09-14T01:57:06.656Z,99677.16
2017-09-14T01:59:34.523Z,99673.34
2017-09-14T02:02:02.355Z,99663.19
2017-09-14T02:04:30.137Z,99654.14
2017-09-14T02:06:58.121Z,99653.17
2017-09-14T02:09:25.869Z,99646.53
2017-09-14T02:11:53.608Z,99645.59
2017-09-14T02:14:21.366Z,99643.22
2017-09-14T02:16:49.089Z,99631.25
2017-09-14T02:19:16.838Z,99628.88
2017-09-14T02:21:44.515Z,99618.66
2017-09-14T02:24:12.386Z,99618.26
2017-09-14T02:26:40.150Z,99602.27
2017-09-14T02:29:07.898Z,99606.08
2017-09-14T02:31:35.607Z,99608.88
2017-09-14T02:34:03.330Z,99609.31
2017-09-14T02:36:30.937Z,99609.59
2017-09-14T02:38:58.562Z,99613.47
2017-09-14T02:41:26.158Z,99612.97
2017-09-14T02:43:53.803Z,99608.69
2017-09-14T02:46:21.414Z,99611.66
2017-09-14T02:48:49.006Z,99610.56
2017-09-14T02:51:16.648Z,99605.30
2017-09-14T02:53:44.311Z,99593.38
2017-09-14T02:56:11.943Z,99586.48
2017-09-14T02:58:39.535Z,99598.00
2017-09-14T03:01:07.178Z,99599.97
2017-09-14T03:03:34.783Z,99602.04
2017-09-14T03:06:02.402Z,99601.22
2017-09-14T03:08:30.007Z,99599.56
2017-09-14T03:10:57.631Z,99594.44
2017-09-14T03:13:25.230Z,99596.50
2017-09-14T03:15:52.908Z,99596.50
2017-09-14T03:18:20.494Z,99601.94
2017-09-14T03:20:48.166Z,99599.34
2017-09-14T03:23:15.771Z,99602.80
2017-09-14T03:25:43.375Z,99605.11
2017-09-14T03:28:10.982Z,99600.98
2017-09-14T03:30:38.587Z,99597.25
2017-09-14T03:33:06.203Z,99597.03
2017-09-14T03:35:33.789Z,99601.67
2017-09-14T03:38:01.430Z,99600.69
2017-09-14T03:40:29.015Z,99597.84
2017-09-14T03:42:56.626Z,99599.28
2017-09-14T03:45:24.210Z,99597.53
2017-09-14T03:47:51.847Z,99589.87
2017-09-14T03:50:19.426Z,99592.34
2017-09-14T03:52:47.044Z,99586.93
2017-09-14T03:55:14.632Z,99574.98
2017-09-14T03:57:42.286Z,99580.30
2017-09-14T04:00:09.882Z,99569.91
2017-09-14T04:02:37.495Z,99569.22
2017-09-14T04:05:05.072Z,99578.80
2017-09-14T04:07:32.695Z,99564.39
2017-09-14T04:10:00.272Z,99568.53
2017-09-14T04:12:27.896Z,99558.38
2017-09-14T04:14:55.486Z,99552.63
2017-09-14T04:17:23.267Z,99552.47
2017-09-14T04:19:51.238Z,99560.36
2017-09-14T04:22:19.131Z,99558.83
2017-09-14T04:24:46.856Z,99558.14
2017-09-14T04:27:14.700Z,99561.52
2017-09-14T04:29:42.282Z,99568.19
2017-09-14T04:32:09.993Z,99562.70
2017-09-14T04:34:37.647Z,99562.83
2017-09-14T04:37:05.466Z,99566.62
2017-09-14T04:39:33.195Z,99572.72
2017-09-14T04:42:00.951Z,99580.33
2017-09-14T04:44:28.634Z,99571.09
2017-09-14T04:46:56.423Z,99573.13
2017-09-14T04:49:24.174Z,99561.14
2017-09-14T04:51:51.989Z,99560.27
2017-09-14T04:54:19.735Z,99554.26
2017-09-14T04:56:47.573Z,99554.41
2017-09-14T04:59:15.327Z,99546.75
2017-09-14T05:01:43.137Z,99533.86
2017-09-14T05:04:10.945Z,99523.63
2017-09-14T05:06:38.768Z,99512.30
2017-09-14T05:09:06.559Z,99499.09
2017-09-14T05:11:34.344Z,99498.69
2017-09-14T05:14:05.037Z,99510.70
2017-09-14T05:16:32.778Z,99534.05
2017-09-14T05:19:00.605Z,99543.78
2017-09-14T05:21:28.235Z,99539.73
2017-09-14T05:23:55.819Z,99543.72
2017-09-14T05:26:23.426Z,99542.37
2017-09-14T05:28:51.047Z,99541.96
2017-09-14T05:31:18.619Z,99536.98
2017-09-14T05:33:46.328Z,99548.34
2017-09-14T05:36:13.943Z,99552.41
2017-09-14T05:38:41.562Z,99558.77
2017-09-14T05:41:09.215Z,99553.43
2017-09-14T05:43:36.798Z,99561.28
2017-09-14T05:46:04.402Z,99566.73
2017-09-14T05:48:32.014Z,99549.58
2017-09-14T05:50:59.623Z,99543.95
2017-09-14T05:53:27.252Z,99546.43
2017-09-14T05:55:54.830Z,99551.81
2017-09-14T05:58:22.516Z,99552.03
2017-09-14T06:00:50.102Z,99533.95
2017-09-14T06:03:17.726Z,99520.55
2017-09-14T06:05:45.322Z,99524.28
2017-09-14T06:08:12.975Z,99555.48
2017-09-14T06:10:40.585Z,99561.36
2017-09-14T06:13:08.287Z,99570.94
2017-09-14T06:15:35.911Z,99566.43
2017-09-14T06:18:03.523Z,99531.95
2017-09-14T06:20:31.523Z,99522.53
2017-09-14T06:22:59.545Z,99547.44
2017-09-14T06:25:28.640Z,99559.42
2017-09-14T06:27:57.118Z,99570.53
2017-09-14T06:30:27.635Z,99563.44
2017-09-14T06:32:55.227Z,99534.52
2017-09-14T06:35:22.891Z,99528.77
2017-09-14T06:37:50.503Z,99567.84
2017-09-14T06:40:18.122Z,99554.04
2017-09-14T06:42:45.723Z,99524.41
2017-09-14T06:45:13.338Z,99503.02
2017-09-14T06:47:40.927Z,99508.58
2017-09-14T06:50:10.145Z,99540.68
2017-09-14T06:52:37.722Z,99539.93
2017-09-14T06:55:05.368Z,99546.09
2017-09-14T06:57:32.954Z,99513.87
2017-09-14T07:00:00.593Z,99513.80
2017-09-14T07:02:29.019Z,99554.34
2017-09-14T07:05:06.174Z,99544.11
2017-09-14T07:07:36.123Z,99543.05
2017-09-14T07:10:06.514Z,99546.73
2017-09-14T07:12:40.172Z,99545.55
2017-09-14T07:15:09.453Z,99539.19
2017-09-14T07:17:45.369Z,99543.22
2017-09-14T07:22:51.698Z,99596.70
2017-09-14T07:25:19.720Z,99586.45
2017-09-14T07:27:56.496Z,99601.87
2017-09-14T07:30:31.059Z,99616.02
2017-09-14T07:32:58.935Z,99591.29
2017-09-14T07:35:39.714Z,99577.12
2017-09-14T07:38:07.576Z,99590.41
2017-09-14T07:40:35.546Z,99602.05
2017-09-14T07:43:03.412Z,99614.83
2017-09-14T07:45:31.426Z,99607.03
2017-09-14T07:47:59.558Z,99626.63
2017-09-14T07:50:27.580Z,99635.87
2017-09-14T07:52:56.011Z,99633.55
2017-09-14T07:55:24.811Z,99638.45
2017-09-14T07:57:52.532Z,99641.45
2017-09-14T08:00:21.390Z,99639.08
2017-09-14T08:02:49.148Z,99636.08
2017-09-14T08:05:16.837Z,99643.06
2017-09-14T08:07:44.579Z,99632.25
2017-09-14T08:10:14.261Z,99634.13
2017-09-14T08:12:42.047Z,99641.67
2017-09-14T08:15:09.913Z,99630.47
2017-09-14T08:17:37.660Z,99636.14
2017-09-14T08:20:05.756Z,99640.71
2017-09-14T08:22:33.660Z,99637.55
2017-09-14T08:25:01.572Z,99653.58
2017-09-14T08:27:29.713Z,99641.37
2017-09-14T08:29:57.391Z,99652.27
2017-09-14T08:32:25.175Z,99644.22
2017-09-14T08:34:53.261Z,99661.59
2017-09-14T08:37:21.593Z,99668.17
2017-09-14T08:39:49.543Z,99677.38
2017-09-14T08:42:17.261Z,99667.58
2017-09-14T08:44:45.334Z,99678.38
2017-09-14T08:47:13.509Z,99679.34
2017-09-14T08:49:41.674Z,99677.81
2017-09-14T08:52:09.928Z,99698.17
2017-09-14T08:54:37.815Z,99691.00
2017-09-14T08:57:06.007Z,99687.18
2017-09-14T08:59:34.036Z,99698.58
2017-09-14T09:02:01.651Z,99703.84
2017-09-14T09:04:29.232Z,99705.03
2017-09-14T09:06:56.860Z,99698.58
2017-09-14T09:09:24.512Z,99714.52
2017-09-14T09:11:52.118Z,99719.85
2017-09-14T09:14:19.715Z,99710.61
2017-09-14T09:16:47.342Z,99732.06
2017-09-14T09:19:14.931Z,99726.92
2017-09-14T09:21:42.861Z,99712.23
2017-09-14T09:24:13.459Z,99708.85
2017-09-14T09:26:41.420Z,99711.27
2017-09-14T09:29:09.190Z,99717.19
2017-09-14T09:31:36.978Z,99718.46
2017-09-14T09:34:04.778Z,99716.70
2017-09-14T09:36:32.881Z,99720.97
2017-09-14T09:39:00.861Z,99724.77
2017-09-14T09:41:28.560Z,99735.51
2017-09-14T09:43:56.360Z,99717.41
2017-09-14T09:46:24.083Z,99722.55
2017-09-14T09:48:51.804Z,99731.03
2017-09-14T09:51:19.680Z,99726.30
2017-09-14T09:53:47.547Z,99745.95
2017-09-14T09:56:18.728Z,99740.18
2017-09-14T09:58:46.659Z,99743.69
2017-09-14T10:01:14.362Z,99743.02
2017-09-14T10:03:42.393Z,99754.09
2017-09-14T10:06:10.140Z,99754.97
2017-09-14T10:08:37.870Z,99756.69
2017-09-14T10:11:05.519Z,99756.16
2017-09-14T10:13:33.239Z,99764.25
2017-09-14T10:16:01.230Z,99767.09
2017-09-14T10:18:29.182Z,99781.02
2017-09-14T10:20:57.047Z,99788.34
2017-09-14T10:23:24.947Z,99783.36
2017-09-14T10:25:52.884Z,99783.64
2017-09-14T10:28:20.810Z,99785.09
2017-09-14T10:30:48.761Z,99801.73
2017-09-14T10:33:17.363Z,99782.80
2017-09-14T10:35:45.066Z,99786.28
2017-09-14T10:38:12.896Z,99806.45
2017-09-14T10:40:40.747Z,99815.70
2017-09-14T10:43:08.587Z,99819.80
2017-09-14T10:45:36.327Z,99816.72
2017-09-14T10:48:04.160Z,99830.81
2017-09-14T10:50:32.158Z,99828.08
2017-09-14T10:52:59.831Z,99840.05
2017-09-14T10:55:27.522Z,99838.55
2017-09-14T10:57:55.308Z,99855.25
2017-09-14T11:00:22.947Z,99844.53
2017-09-14T11:02:50.711Z,99863.70
2017-09-14T11:05:18.495Z,99857.55
2017-09-14T11:07:46.323Z,99858.33
2017-09-14T11:10:14.011Z,99862.19
2017-09-14T11:12:41.590Z,99865.30
2017-09-14T11:15:09.227Z,99855.83
2017-09-14T11:17:36.886Z,99847.56
2017-09-14T11:20:04.522Z,99850.19
2017-09-14T11:22:32.659Z,99854.81
2017-09-14T11:25:00.284Z,99843.68
2017-09-14T11:27:27.927Z,99839.84
2017-09-14T11:29:55.575Z,99840.27
2017-09-14T11:32:23.825Z,99853.45
2017-09-14T11:34:51.862Z,99871.23
2017-09-14T11:37:19.988Z,99869.31
2017-09-14T11:39:48.467Z,99877.29
2017-09-14T11:42:16.933Z,99868.77
2017-09-14T11:44:44.915Z,99875.59
2017-09-14T11:47:12.826Z,99865.73
2017-09-14T11:49:40.589Z,99865.13
2017-09-14T11:52:08.248Z,99866.02
2017-09-14T11:54:35.896Z,99888.36
2017-09-14T11:57:03.497Z,99855.28
2017-09-14T11:59:31.119Z,99865.94
2017-09-14T12:01:58.727Z,99862.08
2017-09-14T12:04:26.412Z,99869.17
2017-09-14T12:06:54.039Z,99866.86
2017-09-14T12:09:21.712Z,99874.73
2017-09-14T12:11:49.331Z,99871.05
2017-09-14T12:14:16.940Z,99879.78
2017-09-14T12:16:44.556Z,99876.17
2017-09-14T12:19:12.161Z,99877.09
2017-09-14T12:21:39.786Z,99873.30
2017-09-14T12:24:07.431Z,99922.10
2017-09-14T12:26:35.002Z,99932.84
2017-09-14T12:29:02.600Z,99917.80
2017-09-14T12:31:30.230Z,99929.30
2017-09-14T12:33:57.838Z,99932.15
2017-09-14T12:36:25.455Z,99935.95
2017-09-14T12:38:53.054Z,99937.16
2017-09-14T12:41:20.666Z,99939.13
2017-09-14T12:43:48.315Z,99928.09
2017-09-14T12:46:16.091Z,99926.29
2017-09-14T12:48:43.758Z,99917.20
2017-09-14T12:51:11.418Z,99915.16
2017-09-14T12:53:39.039Z,99919.82
2017-09-14T12:56:06.657Z,99913.35
2017-09-14T12:58:34.259Z,99925.26
2017-09-14T13:01:01.901Z,99912.73
2017-09-14T13:03:29.531Z,99910.98
2017-09-14T13:05:57.183Z,99900.27
2017-09-14T13:08:24.774Z,99901.93
2017-09-14T13:10:52.402Z,99913.69
2017-09-14T13:13:19.998Z,99905.42
2017-09-14T13:15:47.622Z,99906.10
2017-09-14T13:18:15.219Z,99907.54
2017-09-14T13:20:42.827Z,99912.58
2017-09-14T13:23:10.420Z,99912.13
2017-09-14T13:25:38.044Z,99913.13
2017-09-14T13:28:05.652Z,99928.94
2017-09-14T13:30:33.259Z,99911.02
2017-09-14T13:33:00.839Z,99929.31
2017-09-14T13:35:28.472Z,99953.13
2017-09-14T13:37:56.055Z,99948.20
2017-09-14T13:40:23.785Z,99967.04
2017-09-14T13:42:51.379Z,99965.88
2017-09-14T13:45:18.993Z,99945.08
2017-09-14T13:47:46.583Z,99964.02
2017-09-14T13:50:14.223Z,99992.09
2017-09-14T13:52:42.159Z,99970.42
2017-09-14T13:55:09.976Z,99975.89
2017-09-14T13:57:38.334Z,99970.97
2017-09-14T14:00:06.488Z,99981.92
2017-09-14T14:02:34.098Z,99997.61
2017-09-14T14:05:01.734Z,99991.73
2017-09-14T14:07:29.352Z,99985.23
2017-09-14T14:09:57.256Z,100007.19
2017-09-14T14:12:24.869Z,99988.21
2017-09-14T14:14:52.510Z,100010.13
2017-09-14T14:17:20.140Z,100000.66
2017-09-14T14:19:47.776Z,100011.58
2017-09-14T14:22:15.399Z,100016.37
2017-09-14T14:24:42.992Z,100002.27
2017-09-14T14:27:10.614Z,100012.66
2017-09-14T14:29:38.262Z,100014.34
2017-09-14T14:32:05.910Z,100018.94
2017-09-14T14:34:33.523Z,100039.64
2017-09-14T14:37:01.148Z,100027.61
2017-09-14T14:39:28.767Z,100048.16
2017-09-14T14:41:56.504Z,100041.23
2017-09-14T14:44:24.195Z,100054.23
2017-09-14T14:46:51.912Z,100060.09
2017-09-14T14:49:19.565Z,100043.09
2017-09-14T14:51:47.257Z,100052.97
2017-09-14T14:54:14.888Z,100049.57
2017-09-14T14:56:42.701Z,100050.16
2017-09-14T14:59:10.319Z,100061.23
2017-09-14T15:01:37.977Z,100049.17
2017-09-14T15:04:05.623Z,100067.74
2017-09-14T15:06:33.279Z,100065.20
2017-09-14T15:09:00.964Z,100076.73
2017-09-14T15:11:28.564Z,100063.28
2017-09-14T15:13:56.182Z,100073.36
2017-09-14T15:16:23.786Z,100077.86
2017-09-14T15:18:51.426Z,100090.16
2017-09-14T15:21:19.060Z,100098.70
2017-09-14T15:23:46.682Z,100086.03
2017-09-14T15:26:14.348Z,100096.67
2017-09-14T15:28:41.964Z,100106.55
2017-09-14T15:31:09.587Z,100108.98
2017-09-14T15:33:37.256Z,100119.05
2017-09-14T15:36:04.866Z,100120.95
2017-09-14T15:38:38.143Z,100122.48
2017-09-14T15:41:11.183Z,100120.23
2017-09-14T15:43:44.294Z,100128.54
2017-09-14T15:46:11.890Z,100123.23
2017-09-14T15:48:45.158Z,100104.27
2017-09-14T15:51:18.319Z,100116.18
2017-09-14T15:53:45.975Z,100120.69
2017-09-14T15:56:13.542Z,100103.99
2017-09-14T15:58:41.158Z,100094.64
2017-09-14T16:01:08.780Z,100089.55
2017-09-14T16:03:36.363Z,100078.66
2017-09-14T16:06:03.994Z,100094.98
2017-09-14T16:08:31.591Z,100092.86
2017-09-14T16:10:59.235Z,100088.44
2017-09-14T16:13:26.834Z,100110.72
2017-09-14T16:15:54.466Z,100085.09
2017-09-14T16:18:22.059Z,100080.95
2017-09-14T16:20:49.697Z,100091.11
2017-09-14T16:23:17.340Z,100094.89
2017-09-14T16:25:45.007Z,100082.70
2017-09-14T16:28:12.651Z,100088.19
2017-09-14T16:30:40.262Z,100082.70
2017-09-14T16:33:07.864Z,100081.79
2017-09-14T16:35:35.541Z,100075.10
2017-09-14T16:38:03.147Z,100099.69
2017-09-14T16:40:30.799Z,100088.52
2017-09-14T16:42:58.395Z,100106.73
2017-09-14T16:45:26.012Z,100092.89
2017-09-14T16:47:53.620Z,100102.97
2017-09-14T16:50:21.242Z,100098.68
2017-09-14T16:52:48.857Z,100104.15
2017-09-14T16:55:16.531Z,100113.93
2017-09-14T16:57:44.156Z,100109.74
2017-09-14T17:00:11.911Z,100109.62
2017-09-14T17:02:39.519Z,100105.45
2017-09-14T17:05:07.320Z,100116.69
2017-09-14T17:07:34.949Z,100122.36
2017-09-14T17:10:02.544Z,100142.47
2017-09-14T17:12:30.219Z,100135.61
2017-09-14T17:14:57.826Z,100135.47
2017-09-14T17:17:25.446Z,100147.92
2017-09-14T17:19:53.049Z,100136.13
2017-09-14T17:22:20.798Z,100163.45
2017-09-14T17:24:48.425Z,100162.25
2017-09-14T17:27:16.112Z,100149.37
2017-09-14T17:29:43.800Z,100161.45
2017-09-14T17:32:11.664Z,100165.33
2017-09-14T17:34:39.287Z,100168.02
2017-09-14T17:37:06.897Z,100172.25
2017-09-14T17:39:34.520Z,100197.20
2017-09-14T17:42:02.140Z,100178.26
2017-09-14T17:44:29.780Z,100195.15
2017-09-14T17:46:57.422Z,100196.85
2017-09-14T17:49:25.022Z,100198.88
2017-09-14T17:51:52.658Z,100205.17
2017-09-14T17:54:20.263Z,100224.08
2017-09-14T17:56:47.903Z,100222.19
2017-09-14T17:59:15.528Z,100231.06
2017-09-14T18:01:43.204Z,100243.52
2017-09-14T18:04:10.813Z,100257.76
2017-09-14T18:06:38.427Z,100257.33
2017-09-14T18:09:06.048Z,100265.52
2017-09-14T18:11:33.668Z,100289.25
2017-09-14T18:14:01.322Z,100297.19
2017-09-14T18:16:28.938Z,100293.42
2017-09-14T18:18:56.575Z,100294.64
2017-09-14T18:21:24.196Z,100312.63
2017-09-14T18:23:51.887Z,100306.98
2017-09-14T18:26:19.556Z,100327.91
2017-09-14T18:28:47.159Z,100334.09
2017-09-14T18:31:14.957Z,100357.69
2017-09-14T18:33:42.547Z,100352.45
2017-09-14T18:36:10.192Z,100358.75
2017-09-14T18:38:37.810Z,100365.17
2017-09-14T18:41:05.444Z,100371.60
2017-09-14T18:43:33.054Z,100381.82
2017-09-14T18:46:00.695Z,100386.37
2017-09-14T18:48:28.313Z,100390.95
2017-09-14T18:50:55.967Z,100404.23
2017-09-14T18:53:23.572Z,100414.02
2017-09-14T18:55:51.175Z,100422.73
2017-09-14T18:58:18.831Z,100422.59
2017-09-14T19:00:46.428Z,100414.30
2017-09-14T19:03:14.066Z,100425.39
2017-09-14T19:05:41.757Z,100439.46
2017-09-14T19:08:09.369Z,100435.44
2017-09-14T19:10:36.967Z,100438.41
2017-09-14T19:13:04.610Z,100446.31
2017-09-14T19:15:32.211Z,100461.08
2017-09-14T19:17:59.891Z,100453.71
2017-09-14T19:20:27.601Z,100459.06
2017-09-14T19:22:55.249Z,100465.37
2017-09-14T19:25:22.874Z,100465.09
2017-09-14T19:27:50.535Z,100471.80
2017-09-14T19:30:18.202Z,100478.00
2017-09-14T19:32:45.840Z,100484.81
2017-09-14T19:35:13.458Z,100482.27
2017-09-14T19:37:41.092Z,100490.17
2017-09-14T19:40:08.714Z,100501.98
2017-09-14T19:42:36.348Z,100495.41
2017-09-14T19:45:03.988Z,100503.37
2017-09-14T19:47:31.646Z,100504.42
2017-09-14T19:49:59.312Z,100506.70
2017-09-14T19:52:26.913Z,100512.20
2017-09-14T19:54:54.562Z,100509.79
2017-09-14T19:57:22.177Z,100512.05
2017-09-14T19:59:49.818Z,100515.39
2017-09-14T20:02:17.437Z,100518.48
2017-09-14T20:04:45.056Z,100519.97
2017-09-14T20:07:12.657Z,100514.97
2017-09-14T20:09:40.274Z,100523.44
2017-09-14T20:12:07.924Z,100522.92
2017-09-14T20:14:35.576Z,100533.39
2017-09-14T20:17:03.214Z,100531.77
2017-09-14T20:19:30.861Z,100543.58
2017-09-14T20:21:58.496Z,100543.85
2017-09-14T20:24:26.130Z,100554.83
2017-09-14T20:26:53.792Z,100545.16
2017-09-14T20:29:21.437Z,100559.97
2017-09-14T20:31:49.034Z,100555.53
2017-09-14T20:34:16.815Z,100555.52
2017-09-14T20:36:44.413Z,100563.44
2017-09-14T20:39:12.086Z,100563.58
2017-09-14T20:41:39.711Z,100567.89
2017-09-14T20:44:07.316Z,100577.96
2017-09-14T20:46:34.946Z,100575.83
2017-09-14T20:49:02.552Z,100584.28
2017-09-14T20:51:30.194Z,100598.50
2017-09-14T20:53:57.797Z,100605.22
2017-09-14T20:56:25.422Z,100596.52
2017-09-14T20:58:53.016Z,100609.02
2017-09-14T21:01:20.660Z,100615.59
2017-09-14T21:03:48.262Z,100623.37
2017-09-14T21:06:15.886Z,100619.85
2017-09-14T21:08:43.493Z,100625.62
2017-09-14T21:11:11.143Z,100628.45
2017-09-14T21:13:38.747Z,100630.73
2017-09-14T21:16:06.507Z,100635.96
2017-09-14T21:18:34.139Z,100635.58
2017-09-14T21:21:01.788Z,100635.69
2017-09-14T21:23:29.406Z,100636.92
2017-09-14T21:25:57.061Z,100638.67
2017-09-14T21:28:24.784Z,100628.61
2017-09-14T21:30:52.405Z,100637.33
2017-09-14T21:33:20.004Z,100644.45
2017-09-14T21:35:47.656Z,100639.50
2017-09-14T21:38:15.276Z,100643.25
2017-09-14T21:40:42.970Z,100644.05
2017-09-14T21:43:10.580Z,100640.02
2017-09-14T21:45:38.195Z,100651.31
2017-09-14T21:48:05.855Z,100646.56
2017-09-14T21:50:33.483Z,100658.93
2017-09-14T21:53:01.083Z,100653.18
2017-09-14T21:55:28.729Z,100657.45
2017-09-14T21:57:56.341Z,100661.63
2017-09-14T22:00:23.948Z,100656.94
2017-09-14T22:02:51.589Z,100664.07
2017-09-14T22:05:19.303Z,100659.36
2017-09-14T22:07:46.926Z,100677.63
2017-09-14T22:10:14.589Z,100669.58
2017-09-14T22:12:42.194Z,100675.61
2017-09-14T22:15:09.788Z,100680.33
2017-09-14T22:17:37.419Z,100684.87
2017-09-14T22:20:05.047Z,100680.84
2017-09-14T22:22:32.682Z,100691.06
2017-09-14T22:25:00.458Z,100694.41
2017-09-14T22:27:28.062Z,100686.07
2017-09-14T22:29:55.663Z,100690.66
2017-09-14T22:32:23.308Z,100696.68
2017-09-14T22:34:50.914Z,100703.67
2017-09-14T22:37:18.555Z,100696.30
2017-09-14T22:39:46.268Z,100693.61
2017-09-14T22:42:13.892Z,100693.75
2017-09-14T22:44:41.479Z,100695.09
2017-09-14T22:47:09.194Z,100689.72
2017-09-14T22:49:36.799Z,100690.92
2017-09-14T22:52:04.424Z,100697.23
2017-09-14T22:54:32.033Z,100702.19
2017-09-14T22:56:59.771Z,100695.61
2017-09-14T22:59:27.386Z,100694.55
2017-09-14T23:01:55.006Z,100707.59
2017-09-14T23:04:22.603Z,100701.67
2017-09-14T23:06:50.222Z,100700.33
2017-09-14T23:09:17.815Z,100699.40
2017-09-14T23:11:45.435Z,100709.31
2017-09-14T23:14:13.133Z,100710.80
2017-09-14T23:16:40.858Z,100710.41
2017-09-14T23:19:08.469Z,100712.14
2017-09-14T23:21:36.107Z,100722.22
2017-09-14T23:24:03.694Z,100716.03
2017-09-14T23:26:31.311Z,100714.83
2017-09-14T23:28:58.903Z,100716.58
2017-09-14T23:31:26.527Z,100723.56
2017-09-14T23:33:54.226Z,100725.73
2017-09-14T23:36:21.858Z,100728.80
2017-09-14T23:38:49.621Z,100722.22
2017-09-14T23:41:17.243Z,100726.25
2017-09-14T23:43:44.847Z,100727.18
2017-09-14T23:46:12.500Z,100728.14
2017-09-14T23:48:40.094Z,100730.83
2017-09-14T23:51:07.718Z,100732.55
2017-09-14T23:53:35.326Z,100734.98
2017-09-14T23:56:03.109Z,100736.85
2017-09-14T23:58:30.719Z,100735.13
